sensor_id;sensor_type;location;lat;lon;timestamp;P1;durP1;ratioP1;P2;durP2;ratioP2
35993;SDS011;22066;54.274;18.578;2023-02-02T00:00:52;6.23;;;1.70;;
35993;SDS011;22066;54.274;18.578;2023-02-02T00:03:18;2.73;;;1.27;;
35993;SDS011;22066;54.274;18.578;2023-02-02T00:05:45;4.13;;;1.77;;
35993;SDS011;22066;54.274;18.578;2023-02-02T00:08:12;4.40;;;1.43;;
35993;SDS011;22066;54.274;18.578;2023-02-02T00:10:38;6.57;;;1.60;;
35993;SDS011;22066;54.274;18.578;2023-02-02T00:13:04;6.47;;;2.30;;
35993;SDS011;22066;54.274;18.578;2023-02-02T00:15:30;6.83;;;2.03;;
35993;SDS011;22066;54.274;18.578;2023-02-02T00:17:56;9.37;;;2.43;;
35993;SDS011;22066;54.274;18.578;2023-02-02T00:20:22;13.30;;;2.50;;
35993;SDS011;22066;54.274;18.578;2023-02-02T00:22:48;12.97;;;2.43;;
35993;SDS011;22066;54.274;18.578;2023-02-02T00:25:14;7.63;;;2.17;;
35993;SDS011;22066;54.274;18.578;2023-02-02T00:27:41;9.40;;;1.90;;
35993;SDS011;22066;54.274;18.578;2023-02-02T00:30:07;8.63;;;2.00;;
35993;SDS011;22066;54.274;18.578;2023-02-02T00:32:33;18.33;;;2.83;;
35993;SDS011;22066;54.274;18.578;2023-02-02T00:34:59;9.50;;;1.70;;
35993;SDS011;22066;54.274;18.578;2023-02-02T00:37:25;6.83;;;1.70;;
35993;SDS011;22066;54.274;18.578;2023-02-02T00:39:51;8.77;;;2.33;;
35993;SDS011;22066;54.274;18.578;2023-02-02T00:42:17;8.03;;;1.73;;
35993;SDS011;22066;54.274;18.578;2023-02-02T00:44:43;11.87;;;2.30;;
35993;SDS011;22066;54.274;18.578;2023-02-02T00:47:28;4.70;;;1.63;;
35993;SDS011;22066;54.274;18.578;2023-02-02T00:49:54;9.73;;;2.53;;
35993;SDS011;22066;54.274;18.578;2023-02-02T00:52:20;10.07;;;2.13;;
35993;SDS011;22066;54.274;18.578;2023-02-02T00:54:46;8.83;;;1.90;;
35993;SDS011;22066;54.274;18.578;2023-02-02T00:57:13;9.43;;;1.93;;
35993;SDS011;22066;54.274;18.578;2023-02-02T00:59:39;10.07;;;2.47;;
35993;SDS011;22066;54.274;18.578;2023-02-02T01:02:05;9.37;;;1.87;;
35993;SDS011;22066;54.274;18.578;2023-02-02T01:04:32;14.17;;;2.87;;
35993;SDS011;22066;54.274;18.578;2023-02-02T01:06:58;10.77;;;2.60;;
35993;SDS011;22066;54.274;18.578;2023-02-02T01:09:24;18.67;;;2.90;;
35993;SDS011;22066;54.274;18.578;2023-02-02T01:11:50;18.87;;;2.50;;
35993;SDS011;22066;54.274;18.578;2023-02-02T01:14:16;15.33;;;3.10;;
35993;SDS011;22066;54.274;18.578;2023-02-02T01:16:42;17.27;;;2.47;;
35993;SDS011;22066;54.274;18.578;2023-02-02T01:19:08;15.57;;;2.37;;
35993;SDS011;22066;54.274;18.578;2023-02-02T01:21:34;11.90;;;2.13;;
35993;SDS011;22066;54.274;18.578;2023-02-02T01:24:03;16.33;;;2.93;;
35993;SDS011;22066;54.274;18.578;2023-02-02T01:26:29;16.43;;;3.00;;
35993;SDS011;22066;54.274;18.578;2023-02-02T01:28:55;20.03;;;3.97;;
35993;SDS011;22066;54.274;18.578;2023-02-02T01:31:22;18.00;;;3.93;;
35993;SDS011;22066;54.274;18.578;2023-02-02T01:33:48;20.73;;;4.50;;
35993;SDS011;22066;54.274;18.578;2023-02-02T01:36:16;28.07;;;4.47;;
35993;SDS011;22066;54.274;18.578;2023-02-02T01:38:42;18.67;;;3.85;;
35993;SDS011;22066;54.274;18.578;2023-02-02T01:41:15;12.17;;;2.53;;
35993;SDS011;22066;54.274;18.578;2023-02-02T01:46:12;9.37;;;2.93;;
35993;SDS011;22066;54.274;18.578;2023-02-02T01:48:39;20.50;;;3.90;;
35993;SDS011;22066;54.274;18.578;2023-02-02T01:51:07;8.02;;;2.40;;
35993;SDS011;22066;54.274;18.578;2023-02-02T01:53:34;13.30;;;2.75;;
35993;SDS011;22066;54.274;18.578;2023-02-02T01:56:00;14.57;;;2.67;;
35993;SDS011;22066;54.274;18.578;2023-02-02T01:58:29;8.87;;;6.10;;
35993;SDS011;22066;54.274;18.578;2023-02-02T02:00:56;9.10;;;1.85;;
35993;SDS011;22066;54.274;18.578;2023-02-02T02:03:25;7.40;;;1.60;;
35993;SDS011;22066;54.274;18.578;2023-02-02T02:08:20;13.10;;;2.23;;
35993;SDS011;22066;54.274;18.578;2023-02-02T02:10:47;13.20;;;2.17;;
35993;SDS011;22066;54.274;18.578;2023-02-02T02:13:14;8.00;;;1.80;;
35993;SDS011;22066;54.274;18.578;2023-02-02T02:15:44;10.37;;;2.57;;
35993;SDS011;22066;54.274;18.578;2023-02-02T02:18:34;12.23;;;2.37;;
35993;SDS011;22066;54.274;18.578;2023-02-02T02:24:19;10.67;;;2.80;;
35993;SDS011;22066;54.274;18.578;2023-02-02T02:40:34;11.20;;;2.50;;
35993;SDS011;22066;54.274;18.578;2023-02-02T02:42:57;11.90;;;2.27;;
35993;SDS011;22066;54.274;18.578;2023-02-02T02:45:25;13.60;;;2.85;;
35993;SDS011;22066;54.274;18.578;2023-02-02T02:47:52;9.00;;;2.00;;
35993;SDS011;22066;54.274;18.578;2023-02-02T02:50:18;9.90;;;1.90;;
35993;SDS011;22066;54.274;18.578;2023-02-02T02:52:45;11.27;;;2.27;;
35993;SDS011;22066;54.274;18.578;2023-02-02T02:55:11;7.77;;;2.13;;
35993;SDS011;22066;54.274;18.578;2023-02-02T03:00:26;13.33;;;2.53;;
35993;SDS011;22066;54.274;18.578;2023-02-02T03:06:21;7.43;;;2.07;;
35993;SDS011;22066;54.274;18.578;2023-02-02T03:08:30;7.67;;;1.70;;
35993;SDS011;22066;54.274;18.578;2023-02-02T03:10:58;11.20;;;1.80;;
35993;SDS011;22066;54.274;18.578;2023-02-02T03:13:26;9.10;;;1.90;;
35993;SDS011;22066;54.274;18.578;2023-02-02T03:15:53;16.60;;;1.73;;
35993;SDS011;22066;54.274;18.578;2023-02-02T03:18:19;12.60;;;2.03;;
35993;SDS011;22066;54.274;18.578;2023-02-02T03:20:47;5.85;;;1.40;;
35993;SDS011;22066;54.274;18.578;2023-02-02T03:23:13;7.33;;;1.93;;
35993;SDS011;22066;54.274;18.578;2023-02-02T03:25:39;9.97;;;1.80;;
35993;SDS011;22066;54.274;18.578;2023-02-02T03:28:06;8.07;;;2.00;;
35993;SDS011;22066;54.274;18.578;2023-02-02T03:33:36;8.10;;;2.30;;
35993;SDS011;22066;54.274;18.578;2023-02-02T03:36:03;7.87;;;1.90;;
35993;SDS011;22066;54.274;18.578;2023-02-02T03:38:29;12.47;;;2.80;;
35993;SDS011;22066;54.274;18.578;2023-02-02T03:40:55;5.27;;;1.27;;
35993;SDS011;22066;54.274;18.578;2023-02-02T03:43:21;10.53;;;2.50;;
35993;SDS011;22066;54.274;18.578;2023-02-02T03:45:53;7.47;;;2.13;;
35993;SDS011;22066;54.274;18.578;2023-02-02T03:48:19;10.57;;;2.53;;
35993;SDS011;22066;54.274;18.578;2023-02-02T03:50:45;7.33;;;3.07;;
35993;SDS011;22066;54.274;18.578;2023-02-02T03:53:12;8.23;;;2.60;;
35993;SDS011;22066;54.274;18.578;2023-02-02T03:55:38;13.13;;;2.63;;
35993;SDS011;22066;54.274;18.578;2023-02-02T03:58:05;8.27;;;2.37;;
35993;SDS011;22066;54.274;18.578;2023-02-02T04:00:31;10.30;;;2.20;;
35993;SDS011;22066;54.274;18.578;2023-02-02T04:02:57;15.07;;;2.87;;
35993;SDS011;22066;54.274;18.578;2023-02-02T04:05:24;6.07;;;1.93;;
35993;SDS011;22066;54.274;18.578;2023-02-02T04:07:50;7.40;;;2.50;;
35993;SDS011;22066;54.274;18.578;2023-02-02T04:10:16;4.93;;;1.70;;
35993;SDS011;22066;54.274;18.578;2023-02-02T04:12:43;9.30;;;3.73;;
35993;SDS011;22066;54.274;18.578;2023-02-02T04:15:09;5.60;;;1.80;;
35993;SDS011;22066;54.274;18.578;2023-02-02T04:17:35;5.90;;;2.10;;
35993;SDS011;22066;54.274;18.578;2023-02-02T04:20:02;6.07;;;2.10;;
35993;SDS011;22066;54.274;18.578;2023-02-02T04:22:28;7.80;;;2.00;;
35993;SDS011;22066;54.274;18.578;2023-02-02T04:24:54;11.07;;;2.47;;
35993;SDS011;22066;54.274;18.578;2023-02-02T04:27:21;13.63;;;3.67;;
35993;SDS011;22066;54.274;18.578;2023-02-02T04:29:47;10.43;;;2.93;;
35993;SDS011;22066;54.274;18.578;2023-02-02T04:32:13;16.10;;;2.93;;
35993;SDS011;22066;54.274;18.578;2023-02-02T04:34:40;10.30;;;3.97;;
35993;SDS011;22066;54.274;18.578;2023-02-02T04:37:06;23.80;;;6.37;;
35993;SDS011;22066;54.274;18.578;2023-02-02T04:39:32;19.17;;;7.40;;
35993;SDS011;22066;54.274;18.578;2023-02-02T04:41:58;24.67;;;8.37;;
35993;SDS011;22066;54.274;18.578;2023-02-02T04:44:24;19.67;;;7.13;;
35993;SDS011;22066;54.274;18.578;2023-02-02T04:46:50;17.53;;;6.87;;
35993;SDS011;22066;54.274;18.578;2023-02-02T04:49:16;11.87;;;5.00;;
35993;SDS011;22066;54.274;18.578;2023-02-02T04:51:42;10.80;;;3.20;;
35993;SDS011;22066;54.274;18.578;2023-02-02T04:54:08;5.37;;;2.50;;
35993;SDS011;22066;54.274;18.578;2023-02-02T04:56:34;9.07;;;2.40;;
35993;SDS011;22066;54.274;18.578;2023-02-02T04:59:00;4.37;;;1.80;;
35993;SDS011;22066;54.274;18.578;2023-02-02T05:01:26;4.13;;;1.60;;
35993;SDS011;22066;54.274;18.578;2023-02-02T05:03:54;7.20;;;2.30;;
35993;SDS011;22066;54.274;18.578;2023-02-02T05:06:21;8.00;;;2.40;;
35993;SDS011;22066;54.274;18.578;2023-02-02T05:08:47;4.93;;;2.13;;
35993;SDS011;22066;54.274;18.578;2023-02-02T05:11:17;7.10;;;1.80;;
35993;SDS011;22066;54.274;18.578;2023-02-02T05:13:44;8.03;;;2.13;;
35993;SDS011;22066;54.274;18.578;2023-02-02T05:16:11;10.23;;;1.90;;
35993;SDS011;22066;54.274;18.578;2023-02-02T05:18:37;6.97;;;1.90;;
35993;SDS011;22066;54.274;18.578;2023-02-02T05:21:03;5.53;;;1.63;;
35993;SDS011;22066;54.274;18.578;2023-02-02T05:23:29;7.20;;;1.60;;
35993;SDS011;22066;54.274;18.578;2023-02-02T05:25:55;10.63;;;2.13;;
35993;SDS011;22066;54.274;18.578;2023-02-02T05:28:21;5.87;;;2.13;;
35993;SDS011;22066;54.274;18.578;2023-02-02T05:30:48;7.10;;;1.90;;
35993;SDS011;22066;54.274;18.578;2023-02-02T05:33:14;5.37;;;1.60;;
35993;SDS011;22066;54.274;18.578;2023-02-02T05:35:43;8.02;;;2.10;;
35993;SDS011;22066;54.274;18.578;2023-02-02T05:38:09;3.25;;;1.23;;
35993;SDS011;22066;54.274;18.578;2023-02-02T05:40:35;4.83;;;1.70;;
35993;SDS011;22066;54.274;18.578;2023-02-02T05:43:01;4.13;;;1.63;;
35993;SDS011;22066;54.274;18.578;2023-02-02T05:45:28;5.87;;;1.87;;
35993;SDS011;22066;54.274;18.578;2023-02-02T05:47:54;3.97;;;2.30;;
35993;SDS011;22066;54.274;18.578;2023-02-02T05:50:20;6.93;;;1.87;;
35993;SDS011;22066;54.274;18.578;2023-02-02T05:52:46;5.53;;;1.70;;
35993;SDS011;22066;54.274;18.578;2023-02-02T05:55:13;4.97;;;1.60;;
35993;SDS011;22066;54.274;18.578;2023-02-02T05:57:39;5.23;;;1.63;;
35993;SDS011;22066;54.274;18.578;2023-02-02T06:00:05;5.13;;;2.00;;
35993;SDS011;22066;54.274;18.578;2023-02-02T06:02:31;4.30;;;1.70;;
35993;SDS011;22066;54.274;18.578;2023-02-02T06:04:57;8.33;;;2.20;;
35993;SDS011;22066;54.274;18.578;2023-02-02T06:07:23;4.90;;;1.40;;
35993;SDS011;22066;54.274;18.578;2023-02-02T06:09:50;6.50;;;2.17;;
35993;SDS011;22066;54.274;18.578;2023-02-02T06:12:16;5.40;;;2.03;;
35993;SDS011;22066;54.274;18.578;2023-02-02T06:14:43;5.97;;;1.97;;
35993;SDS011;22066;54.274;18.578;2023-02-02T06:17:09;4.90;;;2.00;;
35993;SDS011;22066;54.274;18.578;2023-02-02T06:19:35;6.23;;;2.63;;
35993;SDS011;22066;54.274;18.578;2023-02-02T06:22:01;5.47;;;2.80;;
35993;SDS011;22066;54.274;18.578;2023-02-02T06:24:27;8.20;;;2.63;;
35993;SDS011;22066;54.274;18.578;2023-02-02T06:26:53;7.63;;;2.30;;
35993;SDS011;22066;54.274;18.578;2023-02-02T06:29:19;7.80;;;2.43;;
35993;SDS011;22066;54.274;18.578;2023-02-02T06:31:45;10.33;;;2.73;;
35993;SDS011;22066;54.274;18.578;2023-02-02T06:34:11;6.53;;;2.23;;
35993;SDS011;22066;54.274;18.578;2023-02-02T06:36:38;9.60;;;2.70;;
35993;SDS011;22066;54.274;18.578;2023-02-02T06:39:05;7.50;;;2.60;;
35993;SDS011;22066;54.274;18.578;2023-02-02T06:41:32;5.10;;;2.07;;
35993;SDS011;22066;54.274;18.578;2023-02-02T06:43:58;5.50;;;2.20;;
35993;SDS011;22066;54.274;18.578;2023-02-02T06:46:24;3.60;;;1.30;;
35993;SDS011;22066;54.274;18.578;2023-02-02T06:48:50;3.80;;;1.47;;
35993;SDS011;22066;54.274;18.578;2023-02-02T06:51:16;5.63;;;2.00;;
35993;SDS011;22066;54.274;18.578;2023-02-02T06:53:42;3.03;;;1.33;;
35993;SDS011;22066;54.274;18.578;2023-02-02T06:56:10;3.37;;;1.50;;
35993;SDS011;22066;54.274;18.578;2023-02-02T06:58:36;3.28;;;1.33;;
35993;SDS011;22066;54.274;18.578;2023-02-02T07:01:03;5.37;;;1.57;;
35993;SDS011;22066;54.274;18.578;2023-02-02T07:03:30;4.07;;;1.13;;
35993;SDS011;22066;54.274;18.578;2023-02-02T07:05:56;2.50;;;1.10;;
35993;SDS011;22066;54.274;18.578;2023-02-02T07:08:22;3.33;;;1.10;;
35993;SDS011;22066;54.274;18.578;2023-02-02T07:10:48;2.10;;;0.87;;
35993;SDS011;22066;54.274;18.578;2023-02-02T07:13:14;1.40;;;0.60;;
35993;SDS011;22066;54.274;18.578;2023-02-02T07:15:40;2.50;;;0.90;;
35993;SDS011;22066;54.274;18.578;2023-02-02T07:18:07;4.23;;;1.17;;
35993;SDS011;22066;54.274;18.578;2023-02-02T07:20:33;3.33;;;1.20;;
35993;SDS011;22066;54.274;18.578;2023-02-02T07:22:59;2.67;;;1.13;;
35993;SDS011;22066;54.274;18.578;2023-02-02T07:25:26;3.97;;;1.25;;
35993;SDS011;22066;54.274;18.578;2023-02-02T07:27:53;1.53;;;0.93;;
35993;SDS011;22066;54.274;18.578;2023-02-02T07:30:20;2.20;;;1.20;;
35993;SDS011;22066;54.274;18.578;2023-02-02T07:32:49;3.33;;;1.43;;
35993;SDS011;22066;54.274;18.578;2023-02-02T07:35:15;6.50;;;1.20;;
35993;SDS011;22066;54.274;18.578;2023-02-02T07:37:41;3.07;;;1.20;;
35993;SDS011;22066;54.274;18.578;2023-02-02T07:40:08;3.27;;;1.77;;
35993;SDS011;22066;54.274;18.578;2023-02-02T07:42:34;3.70;;;0.93;;
35993;SDS011;22066;54.274;18.578;2023-02-02T07:45:00;3.60;;;1.10;;
35993;SDS011;22066;54.274;18.578;2023-02-02T07:47:27;2.67;;;1.37;;
35993;SDS011;22066;54.274;18.578;2023-02-02T07:49:53;2.47;;;1.03;;
35993;SDS011;22066;54.274;18.578;2023-02-02T07:52:19;6.10;;;1.37;;
35993;SDS011;22066;54.274;18.578;2023-02-02T07:54:45;4.37;;;1.13;;
35993;SDS011;22066;54.274;18.578;2023-02-02T07:57:11;3.80;;;1.37;;
35993;SDS011;22066;54.274;18.578;2023-02-02T07:59:37;3.30;;;1.43;;
35993;SDS011;22066;54.274;18.578;2023-02-02T08:02:08;3.73;;;1.53;;
35993;SDS011;22066;54.274;18.578;2023-02-02T08:04:34;4.57;;;1.50;;
35993;SDS011;22066;54.274;18.578;2023-02-02T08:07:01;3.73;;;1.10;;
35993;SDS011;22066;54.274;18.578;2023-02-02T08:09:27;5.17;;;1.67;;
35993;SDS011;22066;54.274;18.578;2023-02-02T08:11:53;4.60;;;1.90;;
35993;SDS011;22066;54.274;18.578;2023-02-02T08:14:19;6.43;;;2.00;;
35993;SDS011;22066;54.274;18.578;2023-02-02T08:16:45;6.37;;;2.07;;
35993;SDS011;22066;54.274;18.578;2023-02-02T08:19:11;4.70;;;2.00;;
35993;SDS011;22066;54.274;18.578;2023-02-02T08:21:37;4.73;;;1.70;;
35993;SDS011;22066;54.274;18.578;2023-02-02T08:24:03;4.83;;;1.83;;
35993;SDS011;22066;54.274;18.578;2023-02-02T08:26:30;4.63;;;1.70;;
35993;SDS011;22066;54.274;18.578;2023-02-02T08:28:57;4.57;;;1.80;;
35993;SDS011;22066;54.274;18.578;2023-02-02T08:31:27;3.55;;;1.85;;
35993;SDS011;22066;54.274;18.578;2023-02-02T08:33:53;5.43;;;1.63;;
35993;SDS011;22066;54.274;18.578;2023-02-02T08:36:20;7.10;;;2.00;;
35993;SDS011;22066;54.274;18.578;2023-02-02T08:38:47;4.50;;;1.88;;
35993;SDS011;22066;54.274;18.578;2023-02-02T08:41:15;4.70;;;1.70;;
35993;SDS011;22066;54.274;18.578;2023-02-02T08:43:41;8.13;;;2.13;;
35993;SDS011;22066;54.274;18.578;2023-02-02T08:46:08;4.77;;;1.90;;
35993;SDS011;22066;54.274;18.578;2023-02-02T08:48:34;8.17;;;2.67;;
35993;SDS011;22066;54.274;18.578;2023-02-02T08:51:00;5.07;;;2.10;;
35993;SDS011;22066;54.274;18.578;2023-02-02T08:53:27;6.43;;;2.17;;
35993;SDS011;22066;54.274;18.578;2023-02-02T08:55:56;5.90;;;1.63;;
35993;SDS011;22066;54.274;18.578;2023-02-02T08:58:23;4.70;;;2.00;;
35993;SDS011;22066;54.274;18.578;2023-02-02T09:00:49;5.87;;;1.27;;
35993;SDS011;22066;54.274;18.578;2023-02-02T09:03:15;4.50;;;1.77;;
35993;SDS011;22066;54.274;18.578;2023-02-02T09:05:41;6.47;;;2.00;;
35993;SDS011;22066;54.274;18.578;2023-02-02T09:08:08;6.77;;;1.30;;
35993;SDS011;22066;54.274;18.578;2023-02-02T09:10:34;4.23;;;1.23;;
35993;SDS011;22066;54.274;18.578;2023-02-02T09:13:00;6.03;;;1.60;;
35993;SDS011;22066;54.274;18.578;2023-02-02T09:15:27;3.27;;;1.27;;
35993;SDS011;22066;54.274;18.578;2023-02-02T09:17:53;4.63;;;1.60;;
35993;SDS011;22066;54.274;18.578;2023-02-02T09:20:19;4.17;;;1.63;;
35993;SDS011;22066;54.274;18.578;2023-02-02T09:22:45;2.90;;;1.23;;
35993;SDS011;22066;54.274;18.578;2023-02-02T09:25:11;3.63;;;1.50;;
35993;SDS011;22066;54.274;18.578;2023-02-02T09:27:37;6.43;;;1.27;;
35993;SDS011;22066;54.274;18.578;2023-02-02T09:30:05;2.95;;;1.30;;
35993;SDS011;22066;54.274;18.578;2023-02-02T09:32:31;4.20;;;1.13;;
35993;SDS011;22066;54.274;18.578;2023-02-02T09:34:58;4.20;;;1.40;;
35993;SDS011;22066;54.274;18.578;2023-02-02T09:37:24;3.17;;;1.20;;
35993;SDS011;22066;54.274;18.578;2023-02-02T09:39:50;4.23;;;1.60;;
35993;SDS011;22066;54.274;18.578;2023-02-02T09:42:41;2.13;;;1.10;;
35993;SDS011;22066;54.274;18.578;2023-02-02T09:55:06;3.67;;;1.43;;
35993;SDS011;22066;54.274;18.578;2023-02-02T09:57:36;2.53;;;0.93;;
35993;SDS011;22066;54.274;18.578;2023-02-02T10:00:04;3.22;;;1.23;;
35993;SDS011;22066;54.274;18.578;2023-02-02T10:02:40;3.88;;;1.10;;
35993;SDS011;22066;54.274;18.578;2023-02-02T10:05:12;3.50;;;1.30;;
35993;SDS011;22066;54.274;18.578;2023-02-02T10:07:40;4.53;;;2.07;;
35993;SDS011;22066;54.274;18.578;2023-02-02T10:17:34;6.28;;;1.27;;
35993;SDS011;22066;54.274;18.578;2023-02-02T10:20:07;3.87;;;1.20;;
35993;SDS011;22066;54.274;18.578;2023-02-02T10:22:39;2.70;;;1.10;;
35993;SDS011;22066;54.274;18.578;2023-02-02T10:25:07;3.67;;;1.20;;
35993;SDS011;22066;54.274;18.578;2023-02-02T10:27:37;2.63;;;0.90;;
35993;SDS011;22066;54.274;18.578;2023-02-02T10:30:07;2.40;;;1.10;;
35993;SDS011;22066;54.274;18.578;2023-02-02T10:32:45;2.60;;;1.10;;
35993;SDS011;22066;54.274;18.578;2023-02-02T10:37:52;7.80;;;2.00;;
35993;SDS011;22066;54.274;18.578;2023-02-02T10:40:26;1.67;;;0.80;;
35993;SDS011;22066;54.274;18.578;2023-02-02T10:45:54;2.37;;;0.90;;
35993;SDS011;22066;54.274;18.578;2023-02-02T10:48:22;3.70;;;0.93;;
35993;SDS011;22066;54.274;18.578;2023-02-02T10:51:00;4.03;;;1.00;;
35993;SDS011;22066;54.274;18.578;2023-02-02T10:53:27;4.40;;;1.70;;
35993;SDS011;22066;54.274;18.578;2023-02-02T11:00:52;2.67;;;0.80;;
35993;SDS011;22066;54.274;18.578;2023-02-02T11:03:30;1.90;;;0.80;;
35993;SDS011;22066;54.274;18.578;2023-02-02T11:06:00;3.90;;;1.50;;
35993;SDS011;22066;54.274;18.578;2023-02-02T11:08:47;3.47;;;1.10;;
35993;SDS011;22066;54.274;18.578;2023-02-02T11:11:21;4.40;;;1.40;;
35993;SDS011;22066;54.274;18.578;2023-02-02T11:13:50;2.25;;;1.10;;
35993;SDS011;22066;54.274;18.578;2023-02-02T11:16:18;1.80;;;0.70;;
35993;SDS011;22066;54.274;18.578;2023-02-02T11:18:44;2.38;;;1.05;;
35993;SDS011;22066;54.274;18.578;2023-02-02T11:24:16;3.97;;;0.80;;
35993;SDS011;22066;54.274;18.578;2023-02-02T11:27:30;2.42;;;0.85;;
35993;SDS011;22066;54.274;18.578;2023-02-02T11:34:42;3.25;;;1.33;;
35993;SDS011;22066;54.274;18.578;2023-02-02T11:37:10;2.15;;;0.77;;
35993;SDS011;22066;54.274;18.578;2023-02-02T11:39:37;1.98;;;0.95;;
35993;SDS011;22066;54.274;18.578;2023-02-02T11:42:09;2.05;;;0.80;;
35993;SDS011;22066;54.274;18.578;2023-02-02T11:44:37;1.88;;;0.75;;
35993;SDS011;22066;54.274;18.578;2023-02-02T11:47:04;3.65;;;1.00;;
35993;SDS011;22066;54.274;18.578;2023-02-02T11:49:32;5.97;;;1.80;;
35993;SDS011;22066;54.274;18.578;2023-02-02T11:52:02;2.60;;;1.00;;
35993;SDS011;22066;54.274;18.578;2023-02-02T11:56:56;3.63;;;1.70;;
35993;SDS011;22066;54.274;18.578;2023-02-02T11:59:27;4.55;;;1.15;;
35993;SDS011;22066;54.274;18.578;2023-02-02T12:04:39;3.17;;;1.30;;
35993;SDS011;22066;54.274;18.578;2023-02-02T12:07:24;4.55;;;1.80;;
35993;SDS011;22066;54.274;18.578;2023-02-02T12:09:51;5.95;;;1.55;;
35993;SDS011;22066;54.274;18.578;2023-02-02T12:17:47;2.97;;;1.00;;
35993;SDS011;22066;54.274;18.578;2023-02-02T12:25:28;3.53;;;1.20;;
35993;SDS011;22066;54.274;18.578;2023-02-02T12:30:38;1.20;;;0.63;;
35993;SDS011;22066;54.274;18.578;2023-02-02T12:41:25;2.97;;;1.17;;
35993;SDS011;22066;54.274;18.578;2023-02-02T13:01:31;2.95;;;1.13;;
35993;SDS011;22066;54.274;18.578;2023-02-02T13:04:10;3.63;;;1.17;;
35993;SDS011;22066;54.274;18.578;2023-02-02T13:06:51;2.78;;;1.45;;
35993;SDS011;22066;54.274;18.578;2023-02-02T13:11:47;2.57;;;1.20;;
35993;SDS011;22066;54.274;18.578;2023-02-02T13:14:28;4.40;;;1.67;;
35993;SDS011;22066;54.274;18.578;2023-02-02T13:16:56;4.20;;;1.43;;
35993;SDS011;22066;54.274;18.578;2023-02-02T13:21:54;3.10;;;1.43;;
35993;SDS011;22066;54.274;18.578;2023-02-02T13:24:23;3.70;;;1.27;;
35993;SDS011;22066;54.274;18.578;2023-02-02T13:26:51;3.97;;;1.50;;
35993;SDS011;22066;54.274;18.578;2023-02-02T13:32:06;7.43;;;1.93;;
35993;SDS011;22066;54.274;18.578;2023-02-02T13:37:16;7.93;;;1.97;;
35993;SDS011;22066;54.274;18.578;2023-02-02T13:39:44;3.80;;;1.33;;
35993;SDS011;22066;54.274;18.578;2023-02-02T13:42:19;5.43;;;1.87;;
35993;SDS011;22066;54.274;18.578;2023-02-02T13:44:50;7.90;;;2.00;;
35993;SDS011;22066;54.274;18.578;2023-02-02T13:47:22;4.17;;;1.80;;
35993;SDS011;22066;54.274;18.578;2023-02-02T13:49:53;10.07;;;2.33;;
35993;SDS011;22066;54.274;18.578;2023-02-02T13:52:31;10.63;;;3.43;;
35993;SDS011;22066;54.274;18.578;2023-02-02T13:55:24;9.60;;;2.97;;
35993;SDS011;22066;54.274;18.578;2023-02-02T14:00:24;6.67;;;1.87;;
35993;SDS011;22066;54.274;18.578;2023-02-02T14:02:57;3.40;;;1.50;;
35993;SDS011;22066;54.274;18.578;2023-02-02T14:07:59;4.53;;;1.47;;
35993;SDS011;22066;54.274;18.578;2023-02-02T14:13:01;4.90;;;1.67;;
35993;SDS011;22066;54.274;18.578;2023-02-02T14:15:38;2.53;;;1.50;;
35993;SDS011;22066;54.274;18.578;2023-02-02T14:18:05;7.07;;;1.40;;
35993;SDS011;22066;54.274;18.578;2023-02-02T14:20:39;3.73;;;1.10;;
35993;SDS011;22066;54.274;18.578;2023-02-02T14:26:03;2.87;;;0.90;;
35993;SDS011;22066;54.274;18.578;2023-02-02T14:28:42;9.73;;;1.77;;
35993;SDS011;22066;54.274;18.578;2023-02-02T14:31:16;4.47;;;1.20;;
35993;SDS011;22066;54.274;18.578;2023-02-02T14:33:50;5.90;;;1.03;;
35993;SDS011;22066;54.274;18.578;2023-02-02T14:36:16;5.43;;;1.87;;
35993;SDS011;22066;54.274;18.578;2023-02-02T14:38:52;2.83;;;1.35;;
35993;SDS011;22066;54.274;18.578;2023-02-02T14:44:06;6.73;;;2.07;;
35993;SDS011;22066;54.274;18.578;2023-02-02T14:46:33;11.93;;;3.40;;
35993;SDS011;22066;54.274;18.578;2023-02-02T14:51:27;6.23;;;1.63;;
35993;SDS011;22066;54.274;18.578;2023-02-02T14:54:39;6.57;;;2.03;;
35993;SDS011;22066;54.274;18.578;2023-02-02T14:56:42;4.13;;;1.40;;
35993;SDS011;22066;54.274;18.578;2023-02-02T14:59:33;8.97;;;3.03;;
35993;SDS011;22066;54.274;18.578;2023-02-02T15:04:27;4.77;;;1.57;;
35993;SDS011;22066;54.274;18.578;2023-02-02T15:06:53;5.67;;;2.83;;
35993;SDS011;22066;54.274;18.578;2023-02-02T15:17:30;3.57;;;1.50;;
35993;SDS011;22066;54.274;18.578;2023-02-02T15:25:24;6.33;;;1.80;;
35993;SDS011;22066;54.274;18.578;2023-02-02T15:27:56;3.93;;;1.40;;
35993;SDS011;22066;54.274;18.578;2023-02-02T15:30:24;4.60;;;1.50;;
35993;SDS011;22066;54.274;18.578;2023-02-02T15:32:51;4.53;;;1.90;;
35993;SDS011;22066;54.274;18.578;2023-02-02T15:35:18;4.47;;;1.30;;
35993;SDS011;22066;54.274;18.578;2023-02-02T15:37:46;3.60;;;1.30;;
35993;SDS011;22066;54.274;18.578;2023-02-02T15:40:14;3.78;;;1.60;;
35993;SDS011;22066;54.274;18.578;2023-02-02T15:42:44;5.20;;;1.43;;
35993;SDS011;22066;54.274;18.578;2023-02-02T15:47:56;4.85;;;1.58;;
35993;SDS011;22066;54.274;18.578;2023-02-02T15:50:23;4.47;;;1.70;;
35993;SDS011;22066;54.274;18.578;2023-02-02T15:52:50;10.10;;;2.87;;
35993;SDS011;22066;54.274;18.578;2023-02-02T15:55:27;5.90;;;1.57;;
35993;SDS011;22066;54.274;18.578;2023-02-02T15:57:53;4.28;;;1.55;;
35993;SDS011;22066;54.274;18.578;2023-02-02T16:00:30;5.53;;;2.00;;
35993;SDS011;22066;54.274;18.578;2023-02-02T16:08:00;7.80;;;2.93;;
35993;SDS011;22066;54.274;18.578;2023-02-02T16:10:27;5.70;;;1.87;;
35993;SDS011;22066;54.274;18.578;2023-02-02T16:12:53;3.40;;;1.70;;
35993;SDS011;22066;54.274;18.578;2023-02-02T16:15:24;7.50;;;1.73;;
35993;SDS011;22066;54.274;18.578;2023-02-02T16:18:04;4.97;;;1.47;;
35993;SDS011;22066;54.274;18.578;2023-02-02T16:20:32;3.00;;;1.27;;
35993;SDS011;22066;54.274;18.578;2023-02-02T16:22:59;2.57;;;1.93;;
35993;SDS011;22066;54.274;18.578;2023-02-02T16:25:29;5.27;;;2.17;;
35993;SDS011;22066;54.274;18.578;2023-02-02T16:27:56;7.68;;;2.35;;
35993;SDS011;22066;54.274;18.578;2023-02-02T16:32:50;5.87;;;2.03;;
35993;SDS011;22066;54.274;18.578;2023-02-02T16:35:30;3.67;;;1.37;;
35993;SDS011;22066;54.274;18.578;2023-02-02T16:40:41;5.07;;;1.80;;
35993;SDS011;22066;54.274;18.578;2023-02-02T16:45:49;5.33;;;1.83;;
35993;SDS011;22066;54.274;18.578;2023-02-02T16:48:28;4.67;;;1.47;;
35993;SDS011;22066;54.274;18.578;2023-02-02T16:53:27;5.00;;;1.60;;
35993;SDS011;22066;54.274;18.578;2023-02-02T16:55:53;6.43;;;1.63;;
35993;SDS011;22066;54.274;18.578;2023-02-02T16:58:22;4.15;;;1.67;;
35993;SDS011;22066;54.274;18.578;2023-02-02T17:01:00;3.80;;;1.50;;
35993;SDS011;22066;54.274;18.578;2023-02-02T17:03:29;6.77;;;1.53;;
35993;SDS011;22066;54.274;18.578;2023-02-02T17:05:56;6.57;;;1.83;;
35993;SDS011;22066;54.274;18.578;2023-02-02T17:08:30;6.33;;;2.13;;
35993;SDS011;22066;54.274;18.578;2023-02-02T17:11:04;6.90;;;1.97;;
35993;SDS011;22066;54.274;18.578;2023-02-02T17:13:33;7.17;;;2.63;;
35993;SDS011;22066;54.274;18.578;2023-02-02T17:16:00;9.97;;;2.37;;
35993;SDS011;22066;54.274;18.578;2023-02-02T17:18:27;7.10;;;2.37;;
35993;SDS011;22066;54.274;18.578;2023-02-02T17:20:53;6.97;;;2.17;;
35993;SDS011;22066;54.274;18.578;2023-02-02T17:25:47;7.70;;;2.00;;
35993;SDS011;22066;54.274;18.578;2023-02-02T17:28:15;14.27;;;3.57;;
35993;SDS011;22066;54.274;18.578;2023-02-02T17:30:41;6.85;;;2.58;;
35993;SDS011;22066;54.274;18.578;2023-02-02T17:33:15;9.17;;;2.37;;